モスクワ/シェレメーチエヴォ の空港の天気 - METARとTAF

シェレメーチエヴォ国際空港(モスクワ) ( UUEE / SVO ) - ロシア モスクワ
飛行場実況気象(Metar)
観測時間07/29 05:30 MSK (07/29 02:30 UTC)
風向・風速西北西 2m/s
視程2900m
天気現象もや
全天の4割程度の雲 雲底高度 60m
気温18℃
湿度94%
気圧1006hPa
METARUUEE 290230Z 29002MPS 2900 BR SCT002 18/17 Q1006 R24C/290040 R24R/290051 NOSIG
過去の天気等 Google飛行場航空写真 Wunderground天気予報

過去48時間のMETAR

飛行場予報(TAF)
発表時間: 7/29 04:59 MSK (7/29 01:59 UTC)
予報対象時間: 29日6時 MSK ~ 30日6時 MSK
風向・風速不定 1m/s
視程6000m
全天の8割程度の雲 雲底高度 120m
29日6時 MSK ~ 29日9時 MSK に一時的に
視程1000m
天気現象弱い雨 もや
全天の8割程度の雲 雲底高度 60m
29日9時 MSK ~ 29日11時 MSK に徐々に
風向・風速西 5m/s
少しの雲 雲底高度 90m
全天の8割程度の雲 雲底高度 490m
TAF UUEE 290159Z 2903/3003 VRB01MPS 6000 BKN004 TX25/2913Z TN17/3001Z
TEMPO 2903/2906 1000 -RA BR BKN002
BECMG 2906/2908 28005MPS FEW003 BKN016